sensor_id;sensor_type;location;lat;lon;timestamp;temperature;humidity
30467;DHT22;17258;52.560;13.046;2023-04-27T00:15:33;11.90;47.10
30467;DHT22;17258;52.560;13.046;2023-04-27T00:25:34;11.90;46.80
30467;DHT22;17258;52.560;13.046;2023-04-27T00:35:34;11.90;46.90
30467;DHT22;17258;52.560;13.046;2023-04-27T00:45:41;12.00;47.00
30467;DHT22;17258;52.560;13.046;2023-04-27T00:55:42;11.90;47.10
30467;DHT22;17258;52.560;13.046;2023-04-27T01:05:43;11.90;46.90
30467;DHT22;17258;52.560;13.046;2023-04-27T01:15:43;11.90;47.00
30467;DHT22;17258;52.560;13.046;2023-04-27T01:25:44;11.80;47.10
30467;DHT22;17258;52.560;13.046;2023-04-27T01:35:45;11.90;47.20
30467;DHT22;17258;52.560;13.046;2023-04-27T01:45:45;11.80;47.20
30467;DHT22;17258;52.560;13.046;2023-04-27T01:55:47;11.80;47.30
30467;DHT22;17258;52.560;13.046;2023-04-27T02:05:48;11.80;47.40
30467;DHT22;17258;52.560;13.046;2023-04-27T02:15:48;11.70;47.30
30467;DHT22;17258;52.560;13.046;2023-04-27T02:25:49;11.70;47.40
30467;DHT22;17258;52.560;13.046;2023-04-27T02:35:50;11.70;47.40
30467;DHT22;17258;52.560;13.046;2023-04-27T02:45:51;11.70;47.50
30467;DHT22;17258;52.560;13.046;2023-04-27T02:55:51;11.70;47.50
30467;DHT22;17258;52.560;13.046;2023-04-27T03:05:52;11.70;47.60
30467;DHT22;17258;52.560;13.046;2023-04-27T03:15:53;11.70;47.60
30467;DHT22;17258;52.560;13.046;2023-04-27T03:25:53;11.60;47.60
30467;DHT22;17258;52.560;13.046;2023-04-27T03:35:55;11.50;47.60
30467;DHT22;17258;52.560;13.046;2023-04-27T03:45:56;11.50;47.70
30467;DHT22;17258;52.560;13.046;2023-04-27T03:55:57;11.50;47.70
30467;DHT22;17258;52.560;13.046;2023-04-27T04:05:58;11.40;47.80
30467;DHT22;17258;52.560;13.046;2023-04-27T04:16:06;11.40;47.90
30467;DHT22;17258;52.560;13.046;2023-04-27T04:26:07;11.40;48.00
30467;DHT22;17258;52.560;13.046;2023-04-27T04:36:09;11.40;48.00
30467;DHT22;17258;52.560;13.046;2023-04-27T04:46:10;11.40;48.10
30467;DHT22;17258;52.560;13.046;2023-04-27T04:56:11;11.40;48.20
30467;DHT22;17258;52.560;13.046;2023-04-27T05:06:12;11.30;48.30
30467;DHT22;17258;52.560;13.046;2023-04-27T05:16:13;11.40;48.40
30467;DHT22;17258;52.560;13.046;2023-04-27T05:26:17;11.50;48.50
30467;DHT22;17258;52.560;13.046;2023-04-27T05:36:18;11.50;48.50
30467;DHT22;17258;52.560;13.046;2023-04-27T05:46:18;11.60;48.50
30467;DHT22;17258;52.560;13.046;2023-04-27T05:56:20;11.70;48.50
30467;DHT22;17258;52.560;13.046;2023-04-27T06:06:21;11.70;48.50
30467;DHT22;17258;52.560;13.046;2023-04-27T06:16:22;11.80;48.70
30467;DHT22;17258;52.560;13.046;2023-04-27T06:26:22;11.80;49.00
30467;DHT22;17258;52.560;13.046;2023-04-27T06:36:24;11.90;48.90
30467;DHT22;17258;52.560;13.046;2023-04-27T06:46:27;12.10;49.00
30467;DHT22;17258;52.560;13.046;2023-04-27T06:56:27;12.30;48.90
30467;DHT22;17258;52.560;13.046;2023-04-27T07:06:28;12.40;49.00
30467;DHT22;17258;52.560;13.046;2023-04-27T07:16:29;12.70;48.90
30467;DHT22;17258;52.560;13.046;2023-04-27T07:26:29;12.80;48.70
30467;DHT22;17258;52.560;13.046;2023-04-27T07:36:32;13.00;48.70
30467;DHT22;17258;52.560;13.046;2023-04-27T07:46:33;13.20;48.60
30467;DHT22;17258;52.560;13.046;2023-04-27T07:56:33;13.40;48.50
30467;DHT22;17258;52.560;13.046;2023-04-27T08:06:34;13.50;47.70
30467;DHT22;17258;52.560;13.046;2023-04-27T08:16:35;13.70;47.80
30467;DHT22;17258;52.560;13.046;2023-04-27T08:26:35;13.80;47.70
30467;DHT22;17258;52.560;13.046;2023-04-27T08:36:36;14.00;47.50
30467;DHT22;17258;52.560;13.046;2023-04-27T08:46:37;14.20;47.10
30467;DHT22;17258;52.560;13.046;2023-04-27T08:56:38;14.40;46.90
30467;DHT22;17258;52.560;13.046;2023-04-27T09:06:38;14.50;46.50
30467;DHT22;17258;52.560;13.046;2023-04-27T09:16:39;14.50;46.30
30467;DHT22;17258;52.560;13.046;2023-04-27T09:26:40;14.50;46.40
30467;DHT22;17258;52.560;13.046;2023-04-27T09:36:42;14.70;46.70
30467;DHT22;17258;52.560;13.046;2023-04-27T09:46:43;14.90;45.80
30467;DHT22;17258;52.560;13.046;2023-04-27T09:56:57;15.00;45.70
30467;DHT22;17258;52.560;13.046;2023-04-27T10:07:05;14.90;45.20
30467;DHT22;17258;52.560;13.046;2023-04-27T10:17:09;15.00;45.90
30467;DHT22;17258;52.560;13.046;2023-04-27T10:27:10;15.20;45.80
30467;DHT22;17258;52.560;13.046;2023-04-27T10:37:17;15.50;44.80
30467;DHT22;17258;52.560;13.046;2023-04-27T10:47:19;15.70;44.40
30467;DHT22;17258;52.560;13.046;2023-04-27T10:57:21;15.70;44.50
30467;DHT22;17258;52.560;13.046;2023-04-27T11:07:24;15.80;44.20
30467;DHT22;17258;52.560;13.046;2023-04-27T11:17:29;15.80;44.30
30467;DHT22;17258;52.560;13.046;2023-04-27T11:27:38;16.00;44.10
30467;DHT22;17258;52.560;13.046;2023-04-27T11:37:40;16.00;43.10
30467;DHT22;17258;52.560;13.046;2023-04-27T11:47:45;16.10;44.10
30467;DHT22;17258;52.560;13.046;2023-04-27T11:57:46;16.40;43.20
30467;DHT22;17258;52.560;13.046;2023-04-27T12:07:47;16.40;42.90
30467;DHT22;17258;52.560;13.046;2023-04-27T12:17:48;16.30;43.20
30467;DHT22;17258;52.560;13.046;2023-04-27T12:27:48;16.30;43.10
30467;DHT22;17258;52.560;13.046;2023-04-27T12:37:49;16.30;43.60
30467;DHT22;17258;52.560;13.046;2023-04-27T12:47:50;16.50;42.90
30467;DHT22;17258;52.560;13.046;2023-04-27T12:57:53;16.80;42.90
30467;DHT22;17258;52.560;13.046;2023-04-27T13:07:54;17.10;42.70
30467;DHT22;17258;52.560;13.046;2023-04-27T13:17:55;17.30;42.40
30467;DHT22;17258;52.560;13.046;2023-04-27T13:27:58;17.70;42.90
30467;DHT22;17258;52.560;13.046;2023-04-27T13:37:58;18.10;42.10
30467;DHT22;17258;52.560;13.046;2023-04-27T13:48:00;18.40;41.30
30467;DHT22;17258;52.560;13.046;2023-04-27T13:58:00;18.60;41.10
30467;DHT22;17258;52.560;13.046;2023-04-27T14:08:01;18.70;41.50
30467;DHT22;17258;52.560;13.046;2023-04-27T14:18:06;18.90;41.30
30467;DHT22;17258;52.560;13.046;2023-04-27T14:28:08;18.90;40.00
30467;DHT22;17258;52.560;13.046;2023-04-27T14:38:11;18.80;40.10
30467;DHT22;17258;52.560;13.046;2023-04-27T14:48:11;18.70;40.10
30467;DHT22;17258;52.560;13.046;2023-04-27T14:58:12;18.60;40.40
30467;DHT22;17258;52.560;13.046;2023-04-27T15:08:13;18.70;39.90
30467;DHT22;17258;52.560;13.046;2023-04-27T15:18:13;18.80;39.80
30467;DHT22;17258;52.560;13.046;2023-04-27T15:28:15;18.80;39.90
30467;DHT22;17258;52.560;13.046;2023-04-27T15:38:16;18.90;40.00
30467;DHT22;17258;52.560;13.046;2023-04-27T15:48:17;18.90;39.20
30467;DHT22;17258;52.560;13.046;2023-04-27T15:58:17;18.80;39.30
30467;DHT22;17258;52.560;13.046;2023-04-27T16:08:18;18.90;39.90
30467;DHT22;17258;52.560;13.046;2023-04-27T16:18:19;19.10;39.70
30467;DHT22;17258;52.560;13.046;2023-04-27T16:28:20;19.30;38.70
30467;DHT22;17258;52.560;13.046;2023-04-27T16:38:21;19.30;39.10
30467;DHT22;17258;52.560;13.046;2023-04-27T16:48:21;19.40;37.60
30467;DHT22;17258;52.560;13.046;2023-04-27T16:58:22;19.30;37.90
30467;DHT22;17258;52.560;13.046;2023-04-27T17:08:23;19.10;37.10
30467;DHT22;17258;52.560;13.046;2023-04-27T17:18:24;18.80;37.70
30467;DHT22;17258;52.560;13.046;2023-04-27T17:28:24;18.50;37.50
30467;DHT22;17258;52.560;13.046;2023-04-27T17:38:25;18.20;37.80
30467;DHT22;17258;52.560;13.046;2023-04-27T17:48:26;17.90;38.00
30467;DHT22;17258;52.560;13.046;2023-04-27T17:58:26;17.60;38.60
30467;DHT22;17258;52.560;13.046;2023-04-27T18:08:27;17.50;39.00
30467;DHT22;17258;52.560;13.046;2023-04-27T18:18:28;17.30;39.20
30467;DHT22;17258;52.560;13.046;2023-04-27T18:28:28;17.20;39.30
30467;DHT22;17258;52.560;13.046;2023-04-27T18:38:29;17.00;39.40
30467;DHT22;17258;52.560;13.046;2023-04-27T18:48:30;16.70;39.30
30467;DHT22;17258;52.560;13.046;2023-04-27T18:58:31;16.40;39.40
30467;DHT22;17258;52.560;13.046;2023-04-27T19:08:32;16.10;39.60
30467;DHT22;17258;52.560;13.046;2023-04-27T19:18:33;15.70;39.70
30467;DHT22;17258;52.560;13.046;2023-04-27T19:28:34;15.30;39.90
30467;DHT22;17258;52.560;13.046;2023-04-27T19:38:35;15.00;40.10
30467;DHT22;17258;52.560;13.046;2023-04-27T19:48:35;14.70;40.30
30467;DHT22;17258;52.560;13.046;2023-04-27T19:58:36;14.30;40.40
30467;DHT22;17258;52.560;13.046;2023-04-27T20:08:36;14.10;40.80
30467;DHT22;17258;52.560;13.046;2023-04-27T20:18:37;13.80;40.80
30467;DHT22;17258;52.560;13.046;2023-04-27T20:28:38;13.50;41.00
30467;DHT22;17258;52.560;13.046;2023-04-27T20:38:38;13.20;41.10
30467;DHT22;17258;52.560;13.046;2023-04-27T20:48:39;12.90;41.20
30467;DHT22;17258;52.560;13.046;2023-04-27T20:58:40;12.70;41.40
30467;DHT22;17258;52.560;13.046;2023-04-27T21:08:40;12.50;41.60
30467;DHT22;17258;52.560;13.046;2023-04-27T21:18:42;12.30;41.70
30467;DHT22;17258;52.560;13.046;2023-04-27T21:28:42;12.10;41.90
30467;DHT22;17258;52.560;13.046;2023-04-27T21:38:43;11.90;42.10
30467;DHT22;17258;52.560;13.046;2023-04-27T21:48:44;11.70;42.20
30467;DHT22;17258;52.560;13.046;2023-04-27T21:58:44;11.50;42.40
30467;DHT22;17258;52.560;13.046;2023-04-27T22:08:45;11.30;42.40
30467;DHT22;17258;52.560;13.046;2023-04-27T22:18:46;11.20;42.60
30467;DHT22;17258;52.560;13.046;2023-04-27T22:28:47;11.00;42.70
30467;DHT22;17258;52.560;13.046;2023-04-27T22:38:49;10.90;42.90
30467;DHT22;17258;52.560;13.046;2023-04-27T22:48:50;10.70;43.10
30467;DHT22;17258;52.560;13.046;2023-04-27T22:58:52;10.60;43.10
30467;DHT22;17258;52.560;13.046;2023-04-27T23:08:52;10.50;43.30
30467;DHT22;17258;52.560;13.046;2023-04-27T23:18:53;10.50;43.40
30467;DHT22;17258;52.560;13.046;2023-04-27T23:28:54;10.40;43.50
30467;DHT22;17258;52.560;13.046;2023-04-27T23:38:54;10.30;43.60
30467;DHT22;17258;52.560;13.046;2023-04-27T23:48:55;10.20;43.70
30467;DHT22;17258;52.560;13.046;2023-04-27T23:58:56;10.10;43.80
